Time;durP1;ratioP1;P1;durP2;ratioP2;P2;SDS_P1;SDS_P2;PMS_P1;PMS_P2;Temp;Humidity;BMP_temperature;BMP_pressure;BME280_temperature;BME280_humidity;BME280_pressure;Samples;Min_cycle;Max_cycle;Signal;HPM_P1;HPM_P2
2021/05/06 00:01:21;;;;;;;7.57;2.10;;;19.10;75.00;;;;;;5076391;28;20541;-71
2021/05/06 00:33:01;;;;;;;7.40;2.13;;;19.00;75.40;;;;;;5080684;28;20017;-71
2021/05/06 00:35:30;;;;;;;10.52;2.40;;;19.00;75.30;;;;;;5076749;28;20107;-71
2021/05/06 00:38:01;;;;;;;9.27;3.05;;;19.00;75.40;;;;;;5079607;28;20023;-71
2021/05/06 00:41:18;;;;;;;9.93;3.22;;;19.00;75.30;;;;;;5077978;28;20479;-71
2021/05/06 00:54:42;;;;;;;15.37;4.27;;;19.00;75.10;;;;;;5079529;28;20024;-70
2021/05/06 01:07:33;;;;;;;15.70;4.05;;;18.90;75.00;;;;;;5081065;28;20487;-71
2021/05/06 01:12:31;;;;;;;16.90;4.55;;;18.90;75.00;;;;;;5079409;28;20035;-71
2021/05/06 01:14:58;;;;;;;14.70;4.45;;;18.90;75.00;;;;;;5082881;28;20032;-71
2021/05/06 01:17:24;;;;;;;18.48;4.75;;;18.90;75.10;;;;;;5062063;28;20540;-71
2021/05/06 01:19:51;;;;;;;15.13;3.65;;;18.90;75.10;;;;;;5082505;28;20111;-71
2021/05/06 01:22:17;;;;;;;10.85;3.53;;;18.90;75.10;;;;;;5084878;28;20112;-71
2021/05/06 01:24:50;;;;;;;10.40;2.95;;;18.90;75.10;;;;;;5070781;28;20405;-71
2021/05/06 01:27:25;;;;;;;14.02;3.65;;;18.90;75.10;;;;;;5084582;28;20024;-71
2021/05/06 01:30:37;;;;;;;15.60;3.83;;;18.90;75.10;;;;;;5083046;28;20050;-71
2021/05/06 01:33:00;;;;;;;12.82;3.78;;;18.80;75.00;;;;;;5071417;28;20591;-71
2021/05/06 01:35:39;;;;;;;12.55;2.97;;;18.80;74.90;;;;;;5079934;28;20019;-70
2021/05/06 01:38:45;;;;;;;11.95;3.65;;;18.80;74.90;;;;;;5079319;28;20033;-70
2021/05/06 01:41:16;;;;;;;15.90;3.30;;;18.90;74.90;;;;;;5079723;28;20062;-70
2021/05/06 01:44:02;;;;;;;9.13;2.67;;;18.80;74.80;;;;;;5084581;28;20028;-71
2021/05/06 01:49:51;;;;;;;10.18;3.65;;;18.80;74.80;;;;;;5053783;28;19931;-71
2021/05/06 02:00:25;;;;;;;15.80;3.97;;;18.70;74.80;;;;;;5078163;28;20398;-71
2021/05/06 02:02:52;;;;;;;19.00;4.25;;;18.80;75.50;;;;;;5078547;28;20386;-71
2021/05/06 02:05:19;;;;;;;18.30;4.63;;;18.80;74.90;;;;;;5082056;28;20044;-71
2021/05/06 02:07:46;;;;;;;17.10;4.85;;;18.80;74.90;;;;;;5082812;28;20085;-71
2021/05/06 02:10:15;;;;;;;21.55;6.82;;;18.70;75.00;;;;;;5078347;28;20016;-70
2021/05/06 02:12:43;;;;;;;16.63;7.40;;;18.70;75.00;;;;;;5070995;28;20028;-71
2021/05/06 02:15:16;;;;;;;21.50;6.70;;;18.70;75.00;;;;;;5079028;28;20455;-71
2021/05/06 02:17:43;;;;;;;20.75;6.03;;;18.70;74.90;;;;;;5080076;28;20063;-71
2021/05/06 02:20:11;;;;;;;19.10;5.40;;;18.70;74.90;;;;;;5082505;28;20483;-71
2021/05/06 02:22:37;;;;;;;17.35;5.20;;;18.70;74.90;;;;;;5078925;28;20467;-71
2021/05/06 02:25:06;;;;;;;13.00;4.47;;;18.70;74.90;;;;;;5075841;28;20533;-71
2021/05/06 02:27:33;;;;;;;16.65;4.35;;;18.70;74.80;;;;;;5080482;28;20070;-71
2021/05/06 02:29:59;;;;;;;13.18;4.57;;;18.70;74.80;;;;;;5080753;28;20483;-71
2021/05/06 02:32:28;;;;;;;13.85;4.65;;;18.70;74.70;;;;;;5079181;28;20040;-71
2021/05/06 02:34:56;;;;;;;18.83;4.88;;;18.70;74.70;;;;;;5078771;28;20031;-70
2021/05/06 02:37:23;;;;;;;16.05;3.78;;;18.70;74.70;;;;;;5076002;28;20093;-70
2021/05/06 02:39:49;;;;;;;14.95;4.40;;;18.70;74.70;;;;;;5080452;28;20017;-71
2021/05/06 02:42:16;;;;;;;23.15;6.18;;;18.60;74.70;;;;;;5085672;28;20048;-70
2021/05/06 02:44:43;;;;;;;16.63;4.35;;;18.70;74.70;;;;;;5082100;28;20027;-70
2021/05/06 02:47:09;;;;;;;20.38;4.25;;;18.60;74.70;;;;;;5083707;28;20052;-70
2021/05/06 02:49:36;;;;;;;23.42;4.65;;;18.60;74.70;;;;;;5084568;28;20028;-71
2021/05/06 02:52:08;;;;;;;21.77;4.32;;;18.60;74.70;;;;;;5078614;28;20036;-71
2021/05/06 02:54:41;;;;;;;20.02;4.70;;;18.70;74.80;;;;;;5083208;28;20028;-70
2021/05/06 02:57:34;;;;;;;18.10;4.25;;;18.60;74.70;;;;;;5081665;28;20025;-70
2021/05/06 03:02:51;;;;;;;26.75;6.03;;;18.70;74.70;;;;;;5079253;28;20087;-70
2021/05/06 03:05:21;;;;;;;18.67;4.80;;;18.60;74.70;;;;;;5081334;28;20020;-70
2021/05/06 03:10:50;;;;;;;14.93;4.53;;;18.60;74.70;;;;;;5043968;28;20540;-70
2021/05/06 03:24:07;;;;;;;32.40;15.80;;;18.60;74.90;;;;;;5077601;28;20407;-71
2021/05/06 03:26:34;;;;;;;29.77;11.18;;;18.60;74.90;;;;;;5081098;28;20382;-70
2021/05/06 03:29:05;;;;;;;29.65;10.98;;;18.60;75.10;;;;;;5079130;28;20095;-71
2021/05/06 03:42:25;;;;;;;20.88;5.45;;;18.60;75.10;;;;;;5077773;28;20086;-70
2021/05/06 04:13:20;;;;;;;31.05;9.32;;;18.60;75.20;;;;;;5074330;28;20537;-69
2021/05/06 04:18:25;;;;;;;21.42;6.70;;;18.50;75.30;;;;;;5083644;28;20036;-69
2021/05/06 04:37:25;;;;;;;19.65;6.28;;;18.50;75.30;;;;;;5055202;28;20059;-69
2021/05/06 04:40:08;;;;;;;18.63;5.55;;;18.50;75.40;;;;;;5050358;28;20036;-70
2021/05/06 04:58:51;;;;;;;13.30;4.47;;;18.40;75.40;;;;;;5062973;28;20028;-70
2021/05/06 05:06:37;;;;;;;17.13;5.10;;;18.50;75.50;;;;;;5066916;28;20051;-70
2021/05/06 05:11:55;;;;;;;14.85;4.78;;;18.40;75.50;;;;;;5053217;28;20104;-70
2021/05/06 05:20:02;;;;;;;20.60;4.85;;;18.40;75.60;;;;;;5054976;28;20631;-69
2021/05/06 05:25:18;;;;;;;19.47;4.67;;;18.40;75.60;;;;;;5058099;28;20063;-70
2021/05/06 05:27:45;;;;;;;19.98;4.63;;;18.40;75.60;;;;;;5064152;28;20060;-70
2021/05/06 05:30:12;;;;;;;19.83;5.80;;;18.40;75.60;;;;;;5067828;28;20468;-70
2021/05/06 05:32:38;;;;;;;15.15;3.78;;;18.40;75.70;;;;;;5062669;28;20055;-70
2021/05/06 05:35:10;;;;;;;17.70;4.50;;;18.40;75.70;;;;;;5059929;28;20040;-70
2021/05/06 05:37:44;;;;;;;17.77;5.95;;;18.40;75.80;;;;;;5064217;28;20166;-70
2021/05/06 05:40:25;;;;;;;13.50;4.37;;;18.40;75.80;;;;;;5064088;28;20036;-70
2021/05/06 05:56:19;;;;;;;15.88;5.18;;;18.40;76.00;;;;;;5084134;28;20078;-70
2021/05/06 05:58:46;;;;;;;26.92;7.03;;;18.40;76.00;;;;;;5084899;28;20042;-69
2021/05/06 06:01:12;;;;;;;25.05;5.78;;;18.40;76.10;;;;;;5083617;28;20631;-69
2021/05/06 06:03:39;;;;;;;15.48;4.90;;;18.40;76.10;;;;;;5084759;28;20081;-70
2021/05/06 06:06:05;;;;;;;15.73;5.43;;;18.40;76.10;;;;;;5082874;28;20024;-70
2021/05/06 06:08:35;;;;;;;23.15;5.03;;;18.40;76.10;;;;;;5082882;28;20046;-70
2021/05/06 06:11:02;;;;;;;19.60;5.20;;;18.40;76.20;;;;;;5079676;28;20009;-70
2021/05/06 06:13:29;;;;;;;26.88;5.88;;;18.40;76.20;;;;;;5082186;28;20020;-70
2021/05/06 06:16:00;;;;;;;20.02;4.72;;;18.40;76.20;;;;;;5084620;28;20078;-70
2021/05/06 06:18:34;;;;;;;22.20;6.97;;;18.40;76.30;;;;;;5081929;28;20380;-69
2021/05/06 06:21:40;;;;;;;16.55;4.68;;;18.40;76.30;;;;;;5080529;28;20071;-70
2021/05/06 06:23:54;;;;;;;15.13;4.25;;;18.40;76.30;;;;;;5078333;28;20039;-70
2021/05/06 06:26:21;;;;;;;17.75;5.10;;;18.40;76.40;;;;;;5082855;28;20027;-70
2021/05/06 06:28:51;;;;;;;21.20;5.43;;;18.40;76.30;;;;;;5080432;28;20029;-70
2021/05/06 06:31:21;;;;;;;20.33;5.20;;;18.40;76.30;;;;;;5082290;28;20721;-69
2021/05/06 06:33:49;;;;;;;17.05;5.53;;;18.40;76.40;;;;;;5080584;28;20024;-70
2021/05/06 06:36:17;;;;;;;23.20;6.03;;;18.40;76.40;;;;;;5080838;28;20070;-70
2021/05/06 06:38:45;;;;;;;21.10;7.07;;;18.40;76.50;;;;;;5084610;28;20032;-70
2021/05/06 06:41:13;;;;;;;17.02;5.90;;;18.40;76.50;;;;;;5084685;28;20027;-70
2021/05/06 06:43:46;;;;;;;26.80;4.70;;;18.40;76.60;;;;;;5082149;28;20138;-70
2021/05/06 06:46:13;;;;;;;17.05;5.18;;;18.50;76.60;;;;;;5084022;28;20031;-70
2021/05/06 06:48:39;;;;;;;14.55;3.80;;;18.50;76.70;;;;;;5080507;28;20031;-69
2021/05/06 06:51:06;;;;;;;18.30;4.80;;;18.50;76.70;;;;;;5082925;28;20016;-69
2021/05/06 06:53:32;;;;;;;16.20;4.40;;;18.50;76.70;;;;;;5078313;28;20016;-70
2021/05/06 06:55:59;;;;;;;14.77;3.95;;;18.50;76.70;;;;;;5081763;28;20020;-70
2021/05/06 06:58:26;;;;;;;15.85;4.30;;;18.50;76.70;;;;;;5081628;28;20071;-69
2021/05/06 07:00:52;;;;;;;15.25;4.00;;;18.50;76.80;;;;;;5084228;28;20036;-69
2021/05/06 07:03:19;;;;;;;12.68;3.85;;;18.50;76.80;;;;;;5084371;28;20028;-70
2021/05/06 07:05:45;;;;;;;11.05;3.25;;;18.50;76.80;;;;;;5078469;28;20012;-70
2021/05/06 07:08:16;;;;;;;8.23;2.83;;;18.50;76.80;;;;;;5083681;28;20040;-71
2021/05/06 07:10:44;;;;;;;9.55;2.88;;;18.60;76.90;;;;;;5081482;28;20133;-69
2021/05/06 07:13:12;;;;;;;10.35;2.10;;;18.50;76.90;;;;;;5083210;28;20035;-69
2021/05/06 07:15:38;;;;;;;7.82;1.77;;;18.60;77.00;;;;;;5075250;28;20008;-68
2021/05/06 07:18:09;;;;;;;5.53;1.80;;;18.60;77.00;;;;;;5080263;28;20104;-68
2021/05/06 07:20:36;;;;;;;6.72;1.52;;;18.60;77.00;;;;;;5081751;28;20053;-69
2021/05/06 07:23:02;;;;;;;3.90;1.45;;;18.60;77.10;;;;;;5083113;28;20050;-69
2021/05/06 07:25:29;;;;;;;9.13;1.73;;;18.60;77.00;;;;;;5084240;28;20019;-68
2021/05/06 07:27:56;;;;;;;5.55;1.92;;;18.60;77.00;;;;;;5081508;28;20016;-70
2021/05/06 07:30:22;;;;;;;2.28;1.05;;;18.70;76.90;;;;;;5079940;28;20023;-70
2021/05/06 07:32:49;;;;;;;4.80;1.33;;;18.70;76.90;;;;;;5081005;28;20047;-68
2021/05/06 07:35:15;;;;;;;5.18;0.95;;;18.70;76.90;;;;;;5082402;28;20023;-68
2021/05/06 07:37:42;;;;;;;2.30;0.80;;;18.70;76.90;;;;;;5080015;28;20028;-69
2021/05/06 07:40:09;;;;;;;4.10;0.98;;;18.70;76.80;;;;;;5080714;28;20032;-68
2021/05/06 07:42:36;;;;;;;3.97;1.10;;;18.80;76.70;;;;;;5083150;28;20487;-70
2021/05/06 07:45:03;;;;;;;2.53;0.70;;;18.80;76.60;;;;;;5080375;28;20099;-70
2021/05/06 07:47:29;;;;;;;2.05;0.80;;;18.80;76.50;;;;;;5083546;28;20069;-68
2021/05/06 07:49:56;;;;;;;2.08;1.05;;;18.90;76.50;;;;;;5082842;28;20020;-71
2021/05/06 07:52:23;;;;;;;3.75;1.25;;;18.90;76.40;;;;;;5084258;28;20016;-68
2021/05/06 07:54:49;;;;;;;6.43;1.60;;;18.90;76.30;;;;;;5079394;28;20108;-68
2021/05/06 07:57:16;;;;;;;5.72;2.58;;;18.90;76.20;;;;;;5081358;28;20563;-68
2021/05/06 07:59:43;;;;;;;8.73;2.25;;;19.00;76.30;;;;;;5083261;28;20046;-68
2021/05/06 08:02:10;;;;;;;9.65;2.63;;;19.00;76.20;;;;;;5078162;28;20601;-68
2021/05/06 08:04:37;;;;;;;6.20;2.67;;;19.00;76.10;;;;;;5081254;28;20204;-68
2021/05/06 08:07:03;;;;;;;7.97;2.15;;;19.00;76.00;;;;;;5080107;28;20009;-68
2021/05/06 08:09:30;;;;;;;9.75;3.08;;;19.10;76.00;;;;;;5077992;28;20070;-68
2021/05/06 08:12:00;;;;;;;4.95;1.88;;;19.10;75.90;;;;;;5079911;28;20027;-68
2021/05/06 08:14:27;;;;;;;5.72;1.88;;;19.10;75.80;;;;;;5080069;28;20467;-68
2021/05/06 08:16:53;;;;;;;7.68;1.98;;;19.10;75.60;;;;;;5089034;28;20152;-68
2021/05/06 08:19:20;;;;;;;7.72;2.83;;;19.10;75.50;;;;;;5086409;28;20083;-68
2021/05/06 08:21:47;;;;;;;8.48;2.53;;;19.20;75.60;;;;;;5089062;28;20028;-68
2021/05/06 08:24:14;;;;;;;4.35;2.25;;;19.10;75.60;;;;;;5085042;28;20016;-68
2021/05/06 08:26:41;;;;;;;8.82;3.15;;;19.20;76.30;;;;;;5085484;28;20043;-68
2021/05/06 08:29:08;;;;;;;4.00;1.35;;;19.20;75.70;;;;;;5084154;28;20078;-68
2021/05/06 08:31:35;;;;;;;3.50;1.17;;;19.20;75.70;;;;;;5087690;28;20446;-68
2021/05/06 08:34:01;;;;;;;5.70;1.30;;;19.30;75.90;;;;;;5081294;28;20016;-70
2021/05/06 08:36:28;;;;;;;4.68;1.30;;;19.30;75.90;;;;;;5083221;28;20019;-68
2021/05/06 08:38:54;;;;;;;5.00;1.55;;;19.30;75.90;;;;;;5085722;28;20081;-68
2021/05/06 08:41:22;;;;;;;7.68;1.88;;;19.30;75.80;;;;;;5084885;28;20119;-68
2021/05/06 08:44:00;;;;;;;4.45;1.55;;;19.40;75.80;;;;;;5083645;28;20416;-68
2021/05/06 08:46:34;;;;;;;4.82;1.70;;;19.40;75.70;;;;;;5081741;28;20024;-68
2021/05/06 08:49:07;;;;;;;6.03;1.70;;;19.30;75.60;;;;;;5084803;28;20025;-68
2021/05/06 08:51:35;;;;;;;3.20;1.20;;;19.40;75.70;;;;;;5083723;28;20031;-68
2021/05/06 08:54:02;;;;;;;5.75;1.98;;;19.30;75.60;;;;;;5086157;28;20024;-68
2021/05/06 08:56:29;;;;;;;3.33;1.45;;;19.40;75.70;;;;;;5083560;28;20039;-68
2021/05/06 08:58:56;;;;;;;4.25;1.55;;;19.40;75.70;;;;;;5083361;28;20012;-68
2021/05/06 09:01:22;;;;;;;6.95;1.80;;;19.40;75.70;;;;;;5084584;28;20047;-68
2021/05/06 09:03:49;;;;;;;5.80;2.30;;;19.40;75.70;;;;;;5083643;28;20020;-68
2021/05/06 09:06:19;;;;;;;3.42;1.40;;;19.40;75.70;;;;;;5090201;28;20051;-69
2021/05/06 09:09:03;;;;;;;2.97;1.77;;;19.40;75.70;;;;;;5082978;28;20528;-68
2021/05/06 09:11:32;;;;;;;4.50;2.20;;;19.50;75.70;;;;;;5078557;28;20025;-68
2021/05/06 09:14:09;;;;;;;5.50;1.90;;;19.40;75.60;;;;;;5084335;28;20012;-68
2021/05/06 09:16:40;;;;;;;7.00;1.83;;;19.50;75.60;;;;;;5080832;28;20066;-68
2021/05/06 09:19:19;;;;;;;8.27;2.30;;;19.50;75.60;;;;;;5085484;28;20365;-68
2021/05/06 09:21:47;;;;;;;4.38;1.88;;;19.60;75.60;;;;;;5083036;28;20383;-68
2021/05/06 09:24:22;;;;;;;9.07;2.55;;;19.60;75.50;;;;;;5084155;28;20027;-68
2021/05/06 09:26:52;;;;;;;9.48;2.38;;;19.60;75.40;;;;;;5086715;28;20020;-68
2021/05/06 09:29:42;;;;;;;9.57;3.13;;;19.70;75.40;;;;;;5083700;28;20035;-68
2021/05/06 09:32:14;;;;;;;9.00;2.83;;;19.70;75.40;;;;;;5084148;28;20131;-68
2021/05/06 09:34:42;;;;;;;8.75;2.75;;;19.70;75.30;;;;;;5081869;28;20028;-68
2021/05/06 09:37:20;;;;;;;11.48;2.90;;;19.80;75.20;;;;;;5085943;28;20474;-69
2021/05/06 09:39:55;;;;;;;10.07;3.28;;;19.90;75.20;;;;;;5082100;28;20032;-69
2021/05/06 09:42:40;;;;;;;6.72;2.53;;;19.90;75.10;;;;;;5082855;28;20028;-68
2021/05/06 09:45:07;;;;;;;14.35;3.30;;;19.90;75.00;;;;;;5085293;28;20028;-68
2021/05/06 09:47:34;;;;;;;10.10;2.53;;;20.00;74.90;;;;;;5079803;28;20487;-68
2021/05/06 09:50:00;;;;;;;6.03;2.55;;;20.00;74.70;;;;;;5085252;28;20051;-68
2021/05/06 09:52:27;;;;;;;10.77;3.75;;;20.00;74.70;;;;;;5083907;28;20360;-69
2021/05/06 09:54:55;;;;;;;13.80;2.90;;;20.00;74.60;;;;;;5081398;28;20013;-68
2021/05/06 09:57:34;;;;;;;9.88;3.08;;;20.00;74.60;;;;;;5086533;28;20057;-69
2021/05/06 10:00:19;;;;;;;14.27;4.38;;;19.90;74.50;;;;;;5080855;28;20035;-69
2021/05/06 10:02:46;;;;;;;12.27;4.37;;;19.90;74.40;;;;;;5084776;28;20028;-69
2021/05/06 10:05:17;;;;;;;12.82;3.67;;;19.90;74.40;;;;;;5084634;28;20094;-70
2021/05/06 10:07:53;;;;;;;9.43;3.05;;;19.90;74.40;;;;;;5085829;28;20540;-69
2021/05/06 10:10:25;;;;;;;12.20;3.33;;;19.90;74.40;;;;;;5085123;28;20020;-69
2021/05/06 10:12:51;;;;;;;12.85;3.33;;;19.80;74.40;;;;;;5080122;28;20038;-70
2021/05/06 10:15:18;;;;;;;10.43;3.58;;;19.80;74.40;;;;;;5086057;28;20019;-70
2021/05/06 10:17:47;;;;;;;11.88;3.65;;;19.80;74.40;;;;;;5082505;28;20026;-70
2021/05/06 10:20:14;;;;;;;13.10;3.03;;;19.80;74.50;;;;;;5083228;28;20078;-70
2021/05/06 10:22:42;;;;;;;8.70;2.67;;;19.70;74.50;;;;;;5087754;28;20434;-69
2021/05/06 10:25:09;;;;;;;9.48;3.10;;;19.70;74.60;;;;;;5081932;28;20099;-69
2021/05/06 10:27:36;;;;;;;11.98;3.30;;;19.70;74.60;;;;;;5085287;28;20020;-69
2021/05/06 10:30:05;;;;;;;15.50;5.00;;;19.70;75.30;;;;;;5081200;28;20044;-69
2021/05/06 10:32:34;;;;;;;11.75;3.83;;;19.70;74.60;;;;;;5082367;28;20044;-70
2021/05/06 10:35:05;;;;;;;14.52;2.90;;;19.70;74.70;;;;;;5083177;28;20020;-69
2021/05/06 10:37:43;;;;;;;9.32;3.33;;;19.70;74.70;;;;;;5084624;28;20019;-69
2021/05/06 10:40:23;;;;;;;12.20;4.82;;;19.80;74.70;;;;;;5079253;28;20043;-69
2021/05/06 10:42:51;;;;;;;15.10;5.10;;;19.80;74.70;;;;;;5082583;28;20614;-68
2021/05/06 10:45:23;;;;;;;13.30;3.45;;;19.90;74.70;;;;;;5084995;28;20016;-69
2021/05/06 10:47:50;;;;;;;15.73;4.97;;;19.90;74.60;;;;;;5081330;28;20021;-69
2021/05/06 10:50:25;;;;;;;11.60;2.72;;;20.00;74.60;;;;;;5083532;28;20020;-69
2021/05/06 10:52:55;;;;;;;8.52;2.88;;;20.10;74.50;;;;;;5081939;28;20032;-69
2021/05/06 10:55:41;;;;;;;8.23;2.97;;;20.10;74.10;;;;;;5082995;28;20032;-69
2021/05/06 11:01:09;;;;;;;9.82;2.88;;;20.20;73.60;;;;;;5078692;28;20036;-68
2021/05/06 11:03:37;;;;;;;13.02;3.97;;;20.30;73.40;;;;;;5081215;28;20024;-69
2021/05/06 11:06:04;;;;;;;9.75;2.97;;;20.30;73.20;;;;;;5081028;28;20094;-69
2021/05/06 11:08:32;;;;;;;11.10;3.35;;;20.30;72.90;;;;;;5083594;28;20367;-68
2021/05/06 11:11:04;;;;;;;12.27;3.08;;;20.40;72.90;;;;;;5083175;28;20468;-68
2021/05/06 11:14:10;;;;;;;10.07;3.50;;;20.30;73.40;;;;;;5080115;28;20016;-68
2021/05/06 11:16:39;;;;;;;10.20;2.70;;;20.30;72.80;;;;;;4998132;28;20033;-68
2021/05/06 11:19:09;;;;;;;15.60;4.57;;;20.30;72.90;;;;;;4999236;28;20025;-69
2021/05/06 11:21:37;;;;;;;11.85;3.47;;;20.30;73.00;;;;;;5043517;28;20075;-70
2021/05/06 11:24:25;;;;;;;10.98;2.90;;;20.40;73.00;;;;;;5078969;28;20387;-69
2021/05/06 11:27:11;;;;;;;11.40;2.70;;;20.40;73.00;;;;;;5078944;28;20019;-69
2021/05/06 11:29:38;;;;;;;;;;;20.40;72.80;;;;;;5078989;28;20032;-69
2021/05/06 11:32:06;;;;;;;9.75;2.75;;;20.50;72.70;;;;;;5084048;28;20445;-69
2021/05/06 11:34:38;;;;;;;12.00;4.03;;;20.50;72.50;;;;;;5082756;28;20038;-69
2021/05/06 11:37:16;;;;;;;10.18;3.30;;;20.60;72.50;;;;;;5081847;28;20020;-69
2021/05/06 11:39:47;;;;;;;11.10;2.70;;;20.70;72.30;;;;;;5078270;28;20025;-69
2021/05/06 11:42:14;;;;;;;14.98;3.03;;;20.70;72.20;;;;;;5079865;28;20035;-69
2021/05/06 11:44:41;;;;;;;21.58;4.22;;;20.80;71.80;;;;;;5081379;28;20078;-69
2021/05/06 11:47:07;;;;;;;16.50;5.40;;;20.80;71.60;;;;;;5074871;28;20016;-69
2021/05/06 11:49:33;;;;;;;12.35;3.08;;;20.90;71.60;;;;;;5080925;28;20032;-69
2021/05/06 11:52:00;;;;;;;11.68;3.78;;;20.90;71.50;;;;;;5078706;28;20019;-69
2021/05/06 11:54:30;;;;;;;8.00;2.40;;;21.00;71.40;;;;;;5079206;28;20088;-69
2021/05/06 11:56:59;;;;;;;12.88;3.75;;;21.00;71.10;;;;;;5077313;28;20098;-69
2021/05/06 11:59:28;;;;;;;11.52;3.22;;;21.10;71.00;;;;;;5076837;28;20034;-69
2021/05/06 12:01:59;;;;;;;9.95;3.38;;;21.10;70.70;;;;;;5080642;28;20113;-69
2021/05/06 12:04:36;;;;;;;11.80;4.18;;;21.00;70.40;;;;;;5081496;28;20460;-69
2021/05/06 12:07:18;;;;;;;11.52;3.63;;;21.00;70.40;;;;;;5080833;28;20024;-69
2021/05/06 12:09:44;;;;;;;15.93;3.53;;;21.00;70.50;;;;;;5076120;28;20543;-69
2021/05/06 12:12:19;;;;;;;18.90;4.75;;;21.00;70.80;;;;;;5078610;28;20376;-69
2021/05/06 12:14:45;;;;;;;12.13;3.17;;;20.90;70.80;;;;;;5077036;28;20094;-69
2021/05/06 12:17:21;;;;;;;8.50;3.35;;;20.80;70.90;;;;;;5082472;28;20471;-69
2021/05/06 12:19:49;;;;;;;11.63;4.00;;;20.80;70.90;;;;;;5075188;28;20361;-69
2021/05/06 12:22:17;;;;;;;17.33;5.05;;;20.80;71.00;;;;;;5078653;28;20545;-69
2021/05/06 12:24:51;;;;;;;16.60;3.85;;;20.70;71.30;;;;;;5064594;28;20063;-70
2021/05/06 12:27:29;;;;;;;12.75;3.17;;;20.60;71.40;;;;;;5081700;28;20077;-69
2021/05/06 12:29:58;;;;;;;12.00;3.30;;;20.60;71.60;;;;;;5080326;28;20024;-69
2021/05/06 12:32:30;;;;;;;14.40;3.70;;;20.60;71.70;;;;;;5078762;28;20046;-69
2021/05/06 12:34:57;;;;;;;15.38;4.22;;;20.50;71.60;;;;;;5076948;28;20096;-69
2021/05/06 12:37:29;;;;;;;14.45;5.28;;;20.50;71.70;;;;;;5081161;28;20029;-69
2021/05/06 12:39:56;;;;;;;13.90;5.25;;;20.50;71.80;;;;;;5078818;28;20024;-70
2021/05/06 12:42:34;;;;;;;13.98;3.83;;;20.50;71.90;;;;;;5078152;28;20108;-69
2021/05/06 12:45:03;;;;;;;16.15;4.72;;;20.50;72.00;;;;;;5078352;28;20016;-69
2021/05/06 12:47:32;;;;;;;14.40;3.80;;;20.50;72.00;;;;;;5076628;28;20023;-69
2021/05/06 12:50:15;;;;;;;14.50;4.45;;;20.50;72.00;;;;;;5081482;28;20035;-69
2021/05/06 12:52:42;;;;;;;6.15;3.03;;;20.50;72.10;;;;;;5079090;28;20024;-69
2021/05/06 12:55:28;;;;;;;13.23;3.38;;;20.50;72.20;;;;;;5076705;28;20016;-69
2021/05/06 12:58:14;;;;;;;;;;;20.60;71.90;;;;;;5077841;28;20044;-70
2021/05/06 13:00:41;;;;;;;;;;;20.60;71.70;;;;;;5080012;28;19920;-69
2021/05/06 13:03:13;;;;;;;9.00;2.97;;;20.60;71.70;;;;;;5086243;28;19936;-69
2021/05/06 13:05:45;;;;;;;13.05;3.75;;;20.60;71.70;;;;;;5078617;28;20031;-69
2021/05/06 13:08:12;;;;;;;12.65;3.03;;;20.60;71.80;;;;;;5081317;28;20024;-69
2021/05/06 13:10:42;;;;;;;13.63;4.03;;;20.70;71.60;;;;;;5081424;28;20493;-69
2021/05/06 13:13:13;;;;;;;17.60;4.18;;;20.60;71.80;;;;;;5084284;28;20020;-70
2021/05/06 13:15:53;;;;;;;14.27;4.40;;;20.60;72.50;;;;;;5082357;28;20043;-70
2021/05/06 13:18:20;;;;;;;16.20;3.90;;;20.50;73.10;;;;;;5081741;28;20020;-70
2021/05/06 13:20:48;;;;;;;10.65;3.63;;;20.50;73.70;;;;;;5082531;28;20108;-70
2021/05/06 13:23:22;;;;;;;12.27;4.05;;;20.40;74.10;;;;;;5081186;28;20094;-70
2021/05/06 13:25:54;;;;;;;15.63;4.43;;;20.40;74.50;;;;;;5082274;28;20025;-70
2021/05/06 13:28:32;;;;;;;16.48;5.60;;;20.40;74.80;;;;;;5078769;28;20086;-71
2021/05/06 13:31:07;;;;;;;13.73;4.72;;;20.40;75.00;;;;;;5074751;28;20390;-70
2021/05/06 13:33:33;;;;;;;22.70;6.15;;;20.30;75.10;;;;;;5081329;28;20035;-70
2021/05/06 13:36:11;;;;;;;17.00;5.22;;;20.20;75.30;;;;;;5082169;28;20008;-70
2021/05/06 13:38:54;;;;;;;14.90;4.68;;;20.20;75.40;;;;;;5081771;28;20044;-70
2021/05/06 13:41:24;;;;;;;14.20;4.72;;;20.20;75.60;;;;;;5082817;28;20070;-69
2021/05/06 13:43:52;;;;;;;13.95;4.72;;;20.10;75.70;;;;;;5080163;28;20488;-70
2021/05/06 13:46:20;;;;;;;19.38;4.38;;;20.10;75.80;;;;;;5083188;28;20016;-70
2021/05/06 13:48:46;;;;;;;15.10;4.57;;;20.10;76.00;;;;;;5080344;28;20036;-70
2021/05/06 13:51:14;;;;;;;16.80;6.00;;;20.10;76.00;;;;;;5080685;28;20020;-70
2021/05/06 13:53:42;;;;;;;15.32;4.80;;;20.10;76.00;;;;;;5080944;28;20024;-70
2021/05/06 13:56:10;;;;;;;16.92;5.68;;;20.00;76.00;;;;;;5081889;28;20024;-70
2021/05/06 13:58:37;;;;;;;16.42;4.30;;;20.00;76.10;;;;;;5083280;28;20008;-70
2021/05/06 14:01:08;;;;;;;25.30;6.47;;;20.00;76.30;;;;;;5080532;28;20040;-70
2021/05/06 14:03:35;;;;;;;14.40;4.05;;;20.00;76.30;;;;;;5078621;28;20535;-70
2021/05/06 14:06:03;;;;;;;16.58;5.20;;;20.00;76.40;;;;;;5077386;28;20028;-70
2021/05/06 14:08:31;;;;;;;15.40;5.28;;;20.00;76.40;;;;;;5083175;28;20020;-70
2021/05/06 14:10:58;;;;;;;22.75;6.90;;;20.00;76.50;;;;;;5085848;28;20105;-70
2021/05/06 14:13:25;;;;;;;16.58;4.30;;;19.90;76.60;;;;;;5079543;28;20091;-71
2021/05/06 14:15:53;;;;;;;18.88;5.20;;;19.90;76.60;;;;;;5077613;28;20061;-70
2021/05/06 14:18:19;;;;;;;17.77;5.30;;;19.90;76.70;;;;;;5081503;28;20024;-70
2021/05/06 14:20:47;;;;;;;17.23;6.07;;;19.90;76.70;;;;;;5080836;28;20041;-70
2021/05/06 14:23:17;;;;;;;16.85;5.95;;;19.90;76.90;;;;;;5084323;28;20027;-72
2021/05/06 14:25:44;;;;;;;20.23;5.80;;;19.90;76.90;;;;;;5080128;28;20021;-72
2021/05/06 14:28:10;;;;;;;20.10;4.85;;;19.90;77.00;;;;;;5079938;28;20031;-72
2021/05/06 14:30:37;;;;;;;15.10;5.03;;;19.90;77.10;;;;;;5083041;28;20671;-69
2021/05/06 14:33:04;;;;;;;16.63;4.30;;;19.90;77.10;;;;;;5081219;28;20029;-70
2021/05/06 14:35:31;;;;;;;17.90;6.13;;;19.80;77.10;;;;;;5080402;28;20691;-71
2021/05/06 14:37:58;;;;;;;17.65;4.60;;;19.80;77.10;;;;;;5078359;28;20071;-71
2021/05/06 14:40:24;;;;;;;16.75;4.80;;;19.80;77.10;;;;;;5080392;28;20059;-70
2021/05/06 14:42:51;;;;;;;19.63;4.63;;;19.80;77.10;;;;;;5079693;28;20021;-71
2021/05/06 14:45:17;;;;;;;25.20;6.55;;;19.80;77.10;;;;;;5081712;28;20012;-70
2021/05/06 14:47:44;;;;;;;16.60;4.55;;;19.80;77.10;;;;;;5083547;28;20017;-70
2021/05/06 14:50:12;;;;;;;17.35;5.50;;;19.80;77.10;;;;;;5078375;28;20494;-71
2021/05/06 14:52:39;;;;;;;18.98;4.68;;;19.80;77.10;;;;;;5079827;28;20015;-70
2021/05/06 14:55:09;;;;;;;17.95;5.45;;;19.80;77.20;;;;;;5079803;28;20016;-70
2021/05/06 14:57:35;;;;;;;18.60;5.22;;;19.80;77.30;;;;;;5078892;28;20016;-71
2021/05/06 15:00:04;;;;;;;13.75;4.40;;;19.80;77.20;;;;;;5079609;28;20479;-70
2021/05/06 15:02:31;;;;;;;17.88;5.22;;;19.80;77.20;;;;;;5078287;28;20025;-70
2021/05/06 15:04:57;;;;;;;19.77;4.72;;;19.70;77.20;;;;;;5079123;28;20020;-69
2021/05/06 15:07:24;;;;;;;15.18;4.70;;;19.70;77.20;;;;;;5083314;28;20072;-70
2021/05/06 15:09:50;;;;;;;16.52;5.50;;;19.70;77.20;;;;;;5082829;28;20027;-69
2021/05/06 15:12:17;;;;;;;14.05;4.95;;;19.80;77.30;;;;;;5078800;28;20024;-68
2021/05/06 15:14:44;;;;;;;13.30;4.45;;;19.70;77.30;;;;;;5076275;28;20024;-69
2021/05/06 15:17:10;;;;;;;23.33;8.43;;;19.70;77.40;;;;;;5079484;28;20491;-71
2021/05/06 15:19:37;;;;;;;20.08;8.25;;;19.70;77.50;;;;;;5077887;28;20028;-69
2021/05/06 15:22:03;;;;;;;18.92;7.28;;;19.70;77.60;;;;;;5078763;28;20050;-69
2021/05/06 15:24:30;;;;;;;19.25;6.63;;;19.70;77.60;;;;;;5077725;28;20024;-69
2021/05/06 15:26:57;;;;;;;13.93;5.43;;;19.60;77.60;;;;;;5081395;28;20016;-69
2021/05/06 15:29:23;;;;;;;16.10;5.85;;;19.70;77.70;;;;;;5082069;28;20507;-69
2021/05/06 15:31:50;;;;;;;17.92;6.20;;;19.70;77.80;;;;;;5078354;28;20048;-71
2021/05/06 15:34:17;;;;;;;15.38;5.45;;;19.70;77.80;;;;;;5078356;28;20103;-70
2021/05/06 15:36:44;;;;;;;14.95;5.28;;;19.60;77.80;;;;;;5081040;28;20035;-70
2021/05/06 15:39:11;;;;;;;21.13;5.63;;;19.60;77.80;;;;;;5080460;28;20089;-70
2021/05/06 15:41:38;;;;;;;21.42;5.63;;;19.60;77.80;;;;;;5081136;28;20032;-70
2021/05/06 15:44:05;;;;;;;22.70;7.18;;;19.60;77.90;;;;;;5080144;28;20025;-69
2021/05/06 15:46:35;;;;;;;28.15;7.47;;;19.60;77.80;;;;;;5081168;28;20028;-70
2021/05/06 15:49:05;;;;;;;21.95;7.22;;;19.60;77.90;;;;;;5080829;28;20020;-71
2021/05/06 15:51:32;;;;;;;20.38;7.47;;;19.60;78.50;;;;;;5076998;28;20122;-70
2021/05/06 15:53:59;;;;;;;15.93;6.18;;;19.60;77.90;;;;;;5079872;28;20481;-70
2021/05/06 15:56:26;;;;;;;25.23;7.95;;;19.60;77.90;;;;;;5080100;28;20054;-70
2021/05/06 15:58:56;;;;;;;18.25;5.82;;;19.60;77.90;;;;;;5074545;28;20081;-71
2021/05/06 16:01:23;;;;;;;25.80;7.50;;;19.50;77.90;;;;;;5076825;28;20055;-70
2021/05/06 16:04:02;;;;;;;23.40;5.60;;;19.50;77.90;;;;;;5076315;28;20032;-70